Taos, NM (87571)

2:45 PM MDT on April 24, 2017 (GMT -0600)
| | Change Station
Active Advisory: Fire Weather Warning

Elev -9999 ft 0.00 °N, 0.00 °E | Updated 8 minutes ago

Clear
Clear
°F
Feels Like °F
N
Wind Variable Wind from North
Gusts mph

Today
High -- | Low -- °F
--% Chance of Precip.
Yesterday
High -- | Low -- °F
Precip. -- in
Pressure 29.79 in
Visibility 10.0 miles
Clouds Clear
Dew Point Not available.
Humidity Not available.
Rainfall --
Snow Depth Not available.
6:16 AM 7:44 PM
Waning Crescent, 4% visible
METAR KAXX 242015Z AUTO 27037G45KT 10SM CLR 15/M08 A2979 RMK AO2 T01541083
Pressure 29.79 in
Visibility 10.0 miles
Clouds Clear
Dew Point Not available.
Humidity Not available.
Rainfall --
Snow Depth Not available.
6:16 AM 7:44 PM
Waning Crescent, 4% visible
METAR KAXX 242015Z AUTO 27037G45KT 10SM CLR 15/M08 A2979 RMK AO2 T01541083

Get Your Daily Forecast Email!

Thanks for signing up!

Be on the lookout for a verification email in your inbox.

You'll start receiving severe weather alerts in your inbox..

×

10-Day Weather Forecast

Almanac

Astronomy

Apr. 24, 2017 Rise Set
Actual Time
Civil Twilight
Nautical Twilight
Astronomical Twilight
Moon
Length of Visible Light
Length of Day
Tomorrow will be .
, % of the Moon is Illuminated

Today's Extremes

State Highs State Lows

Community

WunderPhotos

WunderBlog® & News

Nearby

Air Quality

  Air Quality AQ Index Pollutant
Not available.

Snow Depth

Station Depth Elevation

Earthquake Activity

City Distance Mag. Time & Date
Minimum magnitude displayed is 2.5.

Coastal Water Temperatures

Place Temperature

Stations

Nearby Weather Stations

Station Location Temp. Windchill Dew Point Humidity Wind Precip. Elev Updated Type
                   

Watches & Warnings

Fire Weather Warning
Issued: 3:21 AM MDT Apr. 24, 2017 – National Weather Service

... Red flag warning remains in effect from 10 am this morning to
9 PM MDT this evening...

* area and timing... much of northern and central New Mexico below
significant snowpack, beginning late this morning and
continuing into this evening before diminishing.

* 20 foot winds... generally west 20 to 35 mph with gusts to near
50 mph.

* Relative humidity... 5 to 10 percent below snowpack.

* Impacts... any fires that develop will likely spread rapidly.
Outdoor burning is not recommended.

Precautionary/preparedness actions...

Please advise the appropriate officials or fire crews in the
field of this red flag warning.